Ana Sayfa
METAR-TAF:

METAR-TAF

Havaalanları :

Erzincan Havalimanı

Erzincan, Türkiye

Enlem: 39-44N, Boylam: 039-30E, yükseklik: 1156 m

Güncel hava durumu gözlemi

Rapor saat 18:50 UTC de 38 dakika önce yapıldı.
Rüzgar kuzeydoğudan 3 kt
Sıcaklık 13°C
Nem 72%
Basınç 1022 hPa
Görüş mesafesi 10 km veya daha fazla
4500 ft yükseklikte az bulutlu
10000 ft yükseklikte parçalı bulutlu

METAR: LTCD 161850Z 05003KT 9999 FEW045 SCT100 13/08 Q1022 NOSIG

Saat: 22:28 (19:28 UTC)

Tahmin

Rapor saat 16:40 UTC de 2 saat ve 48 dakika önce yapıldı.
Ayın 16'si saat 18 UTC'den ayın 17'si saat 03 UTC'ye kadar geçerli Tahmin
Rüzgar değişken yönden 2 kt
Görüş mesafesi 10 km veya daha fazla
4500 ft yükseklikte az bulutlu
10000 ft yükseklikte parçalı bulutlu

TAF: LTCD 161640Z 1618/1703 VRB02KT 9999 FEW045 SCT100

4.000'den fazla havaalanı için hava durumu gözlemleri ve tahminleri (METAR ve TAF raporları).

Kullanılabilir istasyonlar harita üzerinde sarı ve kırmızı noktalarla gösterilir.

İstasyonun adını görmek için fareyi noktanın üzerinde gezdirin.

Sonrasında hava gözlem ve tahminlerini görmek için tıklayın.

Haritayı değiştirmek için: yaklaştırmak için siyah artı işaretli yeşil düğmeye ve uzaklaştırmak için de eksi işaretli düğmeye hızla tıklayın; bitişik haritalar için yeşil okları kullanın.


METAR-TAF: